createdAt,value
2023-01-17T00:02:15.295Z,2.51
2023-01-17T00:05:02.100Z,2.51
2023-01-17T00:07:49.286Z,2.47
2023-01-17T00:10:22.715Z,2.47
2023-01-17T00:12:53.798Z,2.47
2023-01-17T00:15:25.641Z,2.47
2023-01-17T00:17:54.488Z,2.45
2023-01-17T00:20:44.308Z,2.42
2023-01-17T00:23:38.795Z,2.37
2023-01-17T00:26:16.774Z,2.33
2023-01-17T00:28:46.056Z,2.33
2023-01-17T00:31:15.720Z,2.33
2023-01-17T00:33:44.041Z,2.34
2023-01-17T00:36:12.579Z,2.35
2023-01-17T00:38:43.691Z,2.35
2023-01-17T00:41:14.332Z,2.35
2023-01-17T00:44:01.180Z,2.38
2023-01-17T00:46:47.958Z,2.41
2023-01-17T00:49:34.643Z,2.44
2023-01-17T00:52:21.388Z,2.46
2023-01-17T00:55:08.047Z,2.51
2023-01-17T00:57:54.709Z,2.57
2023-01-17T01:00:41.643Z,2.60
2023-01-17T01:03:30.170Z,2.65
2023-01-17T01:06:17.061Z,2.69
2023-01-17T01:09:06.728Z,2.70
2023-01-17T01:11:53.465Z,2.71
2023-01-17T01:14:40.412Z,2.66
2023-01-17T01:17:30.598Z,2.59
2023-01-17T01:20:20.535Z,2.47
2023-01-17T01:23:07.201Z,2.39
2023-01-17T01:25:55.312Z,2.32
2023-01-17T01:28:42.468Z,2.32
2023-01-17T01:31:31.595Z,2.32
2023-01-17T01:33:59.723Z,2.29
2023-01-17T01:36:27.745Z,2.24
2023-01-17T01:38:56.940Z,2.21
2023-01-17T01:41:25.079Z,2.19
2023-01-17T01:43:55.839Z,2.17
2023-01-17T01:46:39.747Z,2.14
2023-01-17T01:49:21.713Z,2.10
2023-01-17T01:51:55.624Z,2.08
2023-01-17T01:54:44.776Z,2.07
2023-01-17T01:57:17.675Z,2.05
2023-01-17T01:59:51.860Z,2.04
2023-01-17T02:02:20.145Z,2.05
2023-01-17T02:04:49.459Z,2.04
2023-01-17T02:07:28.899Z,2.07
2023-01-17T02:09:58.744Z,2.12
2023-01-17T02:12:27.677Z,2.15
2023-01-17T02:14:56.249Z,2.19
2023-01-17T02:17:52.617Z,2.25
2023-01-17T02:20:32.152Z,2.29
2023-01-17T02:23:26.257Z,2.33
2023-01-17T02:26:10.368Z,2.36
2023-01-17T02:29:06.990Z,2.37
2023-01-17T02:32:12.438Z,2.41
2023-01-17T02:34:47.668Z,2.45
2023-01-17T02:37:49.044Z,2.51
2023-01-17T02:40:25.168Z,2.54
2023-01-17T02:42:58.805Z,2.58
2023-01-17T02:45:27.194Z,2.59
2023-01-17T02:47:55.372Z,2.66
2023-01-17T02:50:49.452Z,2.73
2023-01-17T02:53:28.094Z,2.82
2023-01-17T02:56:32.713Z,2.85
2023-01-17T02:59:00.871Z,2.88
2023-01-17T03:01:35.123Z,2.90
2023-01-17T03:04:22.209Z,2.85
2023-01-17T03:06:59.045Z,2.80
2023-01-17T03:09:30.943Z,2.79
2023-01-17T03:11:59.728Z,2.76
2023-01-17T03:14:31.095Z,2.74
2023-01-17T03:16:59.633Z,2.71
2023-01-17T03:19:27.745Z,2.70
2023-01-17T03:21:55.787Z,2.67
2023-01-17T03:24:23.937Z,2.66
2023-01-17T03:26:52.006Z,2.64
2023-01-17T03:29:20.495Z,2.66
2023-01-17T03:31:48.838Z,2.66
2023-01-17T03:34:16.939Z,2.67
2023-01-17T03:36:45.151Z,2.67
2023-01-17T03:39:13.323Z,2.69
2023-01-17T03:41:41.363Z,2.71
2023-01-17T03:44:09.656Z,2.73
2023-01-17T03:46:38.008Z,2.76
2023-01-17T03:49:06.347Z,2.79
2023-01-17T03:51:34.491Z,2.82
2023-01-17T03:54:02.664Z,2.82
2023-01-17T03:56:30.859Z,2.84
2023-01-17T03:58:59.025Z,2.89
2023-01-17T04:01:27.097Z,2.94
2023-01-17T04:03:55.447Z,3.00
2023-01-17T04:06:28.545Z,2.97
2023-01-17T04:08:56.611Z,3.01
2023-01-17T04:11:27.972Z,3.00
2023-01-17T04:13:58.680Z,3.03
2023-01-17T04:16:30.746Z,3.05
2023-01-17T04:18:59.015Z,3.12
2023-01-17T04:21:27.263Z,3.17
2023-01-17T04:23:55.326Z,3.21
2023-01-17T04:26:23.751Z,3.25
2023-01-17T04:28:51.899Z,3.27
2023-01-17T04:31:20.124Z,3.29
2023-01-17T04:33:48.280Z,3.31
2023-01-17T04:36:16.432Z,3.29
2023-01-17T04:38:44.725Z,3.28
2023-01-17T04:41:13.259Z,3.25
2023-01-17T04:43:41.351Z,3.21
2023-01-17T04:46:11.016Z,3.19
2023-01-17T04:48:39.363Z,3.17
2023-01-17T04:51:07.652Z,3.13
2023-01-17T04:53:35.942Z,3.08
2023-01-17T04:56:04.560Z,3.01
2023-01-17T04:58:33.503Z,2.95
2023-01-17T05:01:04.201Z,2.93
2023-01-17T05:03:33.427Z,2.89
2023-01-17T05:06:01.896Z,2.85
2023-01-17T05:08:30.404Z,2.80
2023-01-17T05:10:58.735Z,2.75
2023-01-17T05:13:30.278Z,2.70
2023-01-17T05:15:58.832Z,2.64
2023-01-17T05:18:27.269Z,2.58
2023-01-17T05:21:01.700Z,2.56
2023-01-17T05:23:30.244Z,2.55
2023-01-17T05:25:58.535Z,2.54
2023-01-17T05:28:26.886Z,2.53
2023-01-17T05:30:55.311Z,2.54
2023-01-17T05:33:23.468Z,2.54
2023-01-17T05:35:52.004Z,2.55
2023-01-17T05:38:20.472Z,2.55
2023-01-17T05:40:51.028Z,2.57
2023-01-17T05:43:19.845Z,2.61
2023-01-17T05:45:51.652Z,2.66
2023-01-17T05:48:20.683Z,2.71
2023-01-17T05:50:48.979Z,2.77
2023-01-17T05:53:17.764Z,2.83
2023-01-17T05:55:46.045Z,2.91
2023-01-17T05:58:17.436Z,2.96
2023-01-17T06:00:45.872Z,3.02
2023-01-17T06:03:14.227Z,3.05
2023-01-17T06:05:43.016Z,2.99
2023-01-17T06:08:11.439Z,2.96
2023-01-17T06:10:40.070Z,2.97
2023-01-17T06:13:15.375Z,2.97
2023-01-17T06:15:46.848Z,2.95
2023-01-17T06:18:17.547Z,2.92
2023-01-17T06:20:45.834Z,2.87
2023-01-17T06:23:16.737Z,2.83
2023-01-17T06:25:46.846Z,2.78
2023-01-17T06:28:17.692Z,2.74
2023-01-17T06:30:46.361Z,2.68
2023-01-17T06:33:15.127Z,2.63
2023-01-17T06:35:51.038Z,2.59
2023-01-17T06:38:19.644Z,2.57
2023-01-17T06:40:47.887Z,2.55
2023-01-17T06:43:16.252Z,2.55
2023-01-17T06:45:49.358Z,2.55
2023-01-17T06:48:19.141Z,2.57
2023-01-17T06:50:49.902Z,2.59
2023-01-17T06:53:18.284Z,2.62
2023-01-17T06:55:46.833Z,2.66
2023-01-17T06:58:15.127Z,2.68
2023-01-17T07:00:44.131Z,2.72
2023-01-17T07:03:20.182Z,2.76
2023-01-17T07:05:49.079Z,2.80
2023-01-17T07:08:22.616Z,2.80
2023-01-17T07:11:01.625Z,2.83
2023-01-17T07:13:36.218Z,2.85
2023-01-17T07:16:06.213Z,2.86
2023-01-17T07:18:35.294Z,2.89
2023-01-17T07:21:03.372Z,2.91
2023-01-17T07:23:31.623Z,2.99
2023-01-17T07:26:01.179Z,3.00
2023-01-17T07:28:29.548Z,3.05
2023-01-17T07:31:08.071Z,3.11
2023-01-17T07:33:36.606Z,3.20
2023-01-17T07:36:07.604Z,3.27
2023-01-17T07:38:36.139Z,3.35
2023-01-17T07:41:04.483Z,3.43
2023-01-17T07:43:32.674Z,3.51
2023-01-17T07:46:02.193Z,3.56
2023-01-17T07:48:30.982Z,3.60
2023-01-17T07:51:02.011Z,3.63
2023-01-17T07:53:33.078Z,3.64
2023-01-17T07:56:06.366Z,3.64
2023-01-17T07:58:35.810Z,3.65
2023-01-17T08:01:07.356Z,3.63
2023-01-17T08:03:40.183Z,3.55
2023-01-17T08:06:23.893Z,3.51
2023-01-17T08:08:56.438Z,3.46
2023-01-17T08:11:25.200Z,3.44
2023-01-17T08:13:59.474Z,3.42
2023-01-17T08:16:28.857Z,3.41
2023-01-17T08:18:59.749Z,3.39
2023-01-17T08:21:31.067Z,3.40
2023-01-17T08:23:59.298Z,3.42
2023-01-17T08:26:27.658Z,3.46
2023-01-17T08:29:00.269Z,3.52
2023-01-17T08:31:30.729Z,3.59
2023-01-17T08:34:01.693Z,3.66
2023-01-17T08:36:31.316Z,3.75
2023-01-17T08:38:59.787Z,3.84
2023-01-17T08:41:28.256Z,3.94
2023-01-17T08:43:56.568Z,4.04
2023-01-17T08:46:24.959Z,4.12
2023-01-17T08:48:58.756Z,4.16
2023-01-17T08:51:27.616Z,4.25
2023-01-17T08:53:56.823Z,4.32
2023-01-17T08:56:27.967Z,4.37
2023-01-17T08:58:56.245Z,4.45
2023-01-17T09:01:24.752Z,4.49
2023-01-17T09:03:56.601Z,4.52
2023-01-17T09:06:24.936Z,4.54
2023-01-17T09:08:54.940Z,4.52
2023-01-17T09:11:23.298Z,4.50
2023-01-17T09:13:51.560Z,4.48
2023-01-17T09:16:20.052Z,4.48
2023-01-17T09:18:57.900Z,4.48
2023-01-17T09:21:27.093Z,4.43
2023-01-17T09:23:55.610Z,4.44
2023-01-17T09:26:29.364Z,4.45
2023-01-17T09:28:58.794Z,4.49
2023-01-17T09:31:27.955Z,4.54
2023-01-17T09:33:57.774Z,4.61
2023-01-17T09:36:31.967Z,4.70
2023-01-17T09:39:01.999Z,4.80
2023-01-17T09:41:33.460Z,4.89
2023-01-17T09:44:27.667Z,4.96
2023-01-17T09:46:59.014Z,5.05
2023-01-17T09:49:35.731Z,5.17
2023-01-17T09:52:14.935Z,5.33
2023-01-17T09:54:45.520Z,5.45
2023-01-17T09:57:21.268Z,5.57
2023-01-17T10:00:13.201Z,5.70
2023-01-17T10:03:09.905Z,5.85
2023-01-17T10:05:48.681Z,6.02
2023-01-17T10:08:26.610Z,6.19
2023-01-17T10:11:32.374Z,6.33
2023-01-17T10:14:37.195Z,6.51
2023-01-17T10:17:29.771Z,6.62
2023-01-17T10:20:34.171Z,6.69
2023-01-17T10:23:32.018Z,6.75
2023-01-17T10:26:09.101Z,6.85
2023-01-17T10:28:49.667Z,6.98
2023-01-17T10:31:25.040Z,7.14
2023-01-17T10:34:03.816Z,7.30
2023-01-17T10:36:38.702Z,7.47
2023-01-17T10:39:29.338Z,7.64
2023-01-17T10:42:27.177Z,7.79
2023-01-17T10:45:15.399Z,7.93
2023-01-17T10:47:54.140Z,8.01
2023-01-17T10:50:24.792Z,8.12
2023-01-17T10:52:53.400Z,8.23
2023-01-17T10:55:31.340Z,8.30
2023-01-17T10:57:59.513Z,8.40
2023-01-17T11:00:52.553Z,8.47
2023-01-17T11:03:29.126Z,8.53
2023-01-17T11:06:20.291Z,8.52
2023-01-17T11:09:03.558Z,8.60
2023-01-17T11:11:37.617Z,8.66
2023-01-17T11:14:17.552Z,8.77
2023-01-17T11:16:46.569Z,8.89
2023-01-17T11:19:28.640Z,9.04
2023-01-17T11:22:04.888Z,9.16
2023-01-17T11:24:42.180Z,9.26
2023-01-17T11:27:25.519Z,9.35
2023-01-17T11:30:16.569Z,9.46
2023-01-17T11:32:58.427Z,9.53
2023-01-17T11:35:31.114Z,9.53
2023-01-17T11:37:59.313Z,9.50
2023-01-17T11:40:36.613Z,9.51
2023-01-17T11:43:28.450Z,9.51
2023-01-17T11:46:20.614Z,9.56
2023-01-17T11:48:56.989Z,9.68
2023-01-17T11:51:41.584Z,9.76
2023-01-17T11:54:40.458Z,9.89
2023-01-17T11:57:23.999Z,10.01
2023-01-17T11:59:59.677Z,10.11
2023-01-17T12:02:33.619Z,10.22
2023-01-17T12:05:01.646Z,10.41
2023-01-17T12:07:58.939Z,10.57
2023-01-17T12:10:29.996Z,10.78
2023-01-17T12:13:51.433Z,10.92
2023-01-17T12:16:42.106Z,11.11
2023-01-17T12:19:16.420Z,11.31
2023-01-17T12:22:03.303Z,11.48
2023-01-17T12:24:47.918Z,11.63
2023-01-17T12:27:34.655Z,11.72
2023-01-17T12:30:24.929Z,11.86
2023-01-17T12:33:19.362Z,12.01
2023-01-17T12:35:58.528Z,12.54
2023-01-17T12:38:33.612Z,12.95
2023-01-17T12:41:26.601Z,13.08
2023-01-17T12:43:59.052Z,13.07
2023-01-17T12:46:34.076Z,13.05
2023-01-17T12:49:40.740Z,12.99
2023-01-17T12:52:25.162Z,12.92
2023-01-17T12:55:03.191Z,12.80
2023-01-17T12:57:42.109Z,12.78
2023-01-17T13:00:23.255Z,12.85
2023-01-17T13:02:56.743Z,12.87
2023-01-17T13:05:24.750Z,12.80
2023-01-17T13:08:06.760Z,12.64
2023-01-17T13:10:51.183Z,12.51
2023-01-17T13:13:26.094Z,12.37
2023-01-17T13:16:17.691Z,12.25
2023-01-17T13:18:51.783Z,12.12
2023-01-17T13:21:34.577Z,12.03
2023-01-17T13:24:17.524Z,11.93
2023-01-17T13:27:20.583Z,11.78
2023-01-17T13:30:34.695Z,11.64
2023-01-17T13:33:37.240Z,11.53
2023-01-17T13:36:14.874Z,11.40
2023-01-17T13:38:57.654Z,11.30
2023-01-17T13:41:47.732Z,11.20
2023-01-17T13:44:22.506Z,11.11
2023-01-17T13:47:10.859Z,11.03
2023-01-17T13:49:44.706Z,10.93
2023-01-17T13:52:23.165Z,10.89
2023-01-17T13:54:56.830Z,10.83
2023-01-17T13:57:30.040Z,10.77
2023-01-17T14:00:16.428Z,10.71
2023-01-17T14:02:46.611Z,10.64
2023-01-17T14:05:21.346Z,10.60
2023-01-17T14:08:02.336Z,10.56
2023-01-17T14:10:41.662Z,10.52
2023-01-17T14:13:33.918Z,10.48
2023-01-17T14:16:05.500Z,10.43
2023-01-17T14:18:36.877Z,10.36
2023-01-17T14:21:35.711Z,10.27
2023-01-17T14:24:06.601Z,10.18
2023-01-17T14:26:56.293Z,10.12
2023-01-17T14:29:42.815Z,10.04
2023-01-17T14:32:13.976Z,9.97
2023-01-17T14:34:45.974Z,9.90
2023-01-17T14:37:33.505Z,9.83
2023-01-17T14:40:02.289Z,9.72
2023-01-17T14:42:33.762Z,9.62
2023-01-17T14:45:13.932Z,9.52
2023-01-17T14:47:46.023Z,9.42
2023-01-17T14:50:30.008Z,9.31
2023-01-17T14:53:20.105Z,9.19
2023-01-17T14:55:48.527Z,9.05
2023-01-17T14:58:21.201Z,8.93
2023-01-17T15:00:51.749Z,8.83
2023-01-17T15:03:20.384Z,8.73
2023-01-17T15:05:51.985Z,8.65
2023-01-17T15:08:23.885Z,8.56
2023-01-17T15:11:03.161Z,8.50
2023-01-17T15:13:44.698Z,8.44
2023-01-17T15:16:25.606Z,8.33
2023-01-17T15:18:55.985Z,8.24
2023-01-17T15:21:42.541Z,8.19
2023-01-17T15:24:21.515Z,8.12
2023-01-17T15:26:52.692Z,8.06
2023-01-17T15:29:26.690Z,8.03
2023-01-17T15:32:01.188Z,7.99
2023-01-17T15:34:30.514Z,7.94
2023-01-17T15:37:08.123Z,7.88
2023-01-17T15:39:39.586Z,7.79
2023-01-17T15:42:38.757Z,7.70
2023-01-17T15:45:13.059Z,7.56
2023-01-17T15:47:41.444Z,7.46
2023-01-17T15:50:26.558Z,7.36
2023-01-17T15:53:01.032Z,7.27
2023-01-17T15:55:34.948Z,7.19
2023-01-17T15:58:05.359Z,7.12
2023-01-17T16:00:40.594Z,7.06
2023-01-17T16:03:23.495Z,7.00
2023-01-17T16:05:54.220Z,6.91
2023-01-17T16:08:31.179Z,6.82
2023-01-17T16:11:02.429Z,6.77
2023-01-17T16:13:43.433Z,6.71
2023-01-17T16:16:17.831Z,6.69
2023-01-17T16:18:57.755Z,6.65
2023-01-17T16:21:30.417Z,6.67
2023-01-17T16:24:00.119Z,6.68
2023-01-17T16:26:29.409Z,6.71
2023-01-17T16:28:57.882Z,6.76
2023-01-17T16:31:26.000Z,6.82
2023-01-17T16:33:59.372Z,6.88
2023-01-17T16:36:27.784Z,6.93
2023-01-17T16:38:56.102Z,6.96
2023-01-17T16:41:24.375Z,7.00
2023-01-17T16:44:04.969Z,7.01
2023-01-17T16:46:36.229Z,7.00
2023-01-17T16:49:05.088Z,6.98
2023-01-17T16:51:34.514Z,6.93
2023-01-17T16:54:05.152Z,6.88
2023-01-17T16:56:33.394Z,6.86
2023-01-17T16:59:01.635Z,6.84
2023-01-17T17:01:30.038Z,6.83
2023-01-17T17:03:58.095Z,6.81
2023-01-17T17:06:26.325Z,6.81
2023-01-17T17:08:54.402Z,6.82
2023-01-17T17:11:23.896Z,6.82
2023-01-17T17:13:52.273Z,6.83
2023-01-17T17:16:32.919Z,6.84
2023-01-17T17:19:07.595Z,6.84
2023-01-17T17:21:40.390Z,6.82
2023-01-17T17:24:12.725Z,6.82
2023-01-17T17:26:41.092Z,6.78
2023-01-17T17:29:12.112Z,6.80
2023-01-17T17:31:41.537Z,6.81
2023-01-17T17:34:12.110Z,6.82
2023-01-17T17:36:41.225Z,6.85
2023-01-17T17:39:14.927Z,6.86
2023-01-17T17:41:45.932Z,6.90
2023-01-17T17:44:17.572Z,6.93
2023-01-17T17:46:49.242Z,6.97
2023-01-17T17:49:17.314Z,6.99
2023-01-17T17:51:45.373Z,7.00
2023-01-17T17:54:15.016Z,7.00
2023-01-17T17:56:49.476Z,6.96
2023-01-17T17:59:20.349Z,6.94
2023-01-17T18:01:51.935Z,6.88
2023-01-17T18:04:20.063Z,6.82
2023-01-17T18:06:48.614Z,6.80
2023-01-17T18:09:16.865Z,6.75
2023-01-17T18:11:48.383Z,6.73
2023-01-17T18:14:17.793Z,6.75
2023-01-17T18:16:47.122Z,6.76
2023-01-17T18:19:22.238Z,6.76
2023-01-17T18:21:51.504Z,6.80
2023-01-17T18:24:24.532Z,6.85
2023-01-17T18:26:54.429Z,6.89
2023-01-17T18:29:24.028Z,6.93
2023-01-17T18:31:53.177Z,6.97
2023-01-17T18:34:24.689Z,7.02
2023-01-17T18:36:53.197Z,7.04
2023-01-17T18:39:27.361Z,7.08
2023-01-17T18:41:55.616Z,7.08
2023-01-17T18:44:24.535Z,7.10
2023-01-17T18:46:55.888Z,7.09
2023-01-17T18:49:24.034Z,7.08
2023-01-17T18:51:52.103Z,7.06
2023-01-17T18:54:20.690Z,7.01
2023-01-17T18:56:48.997Z,6.97
2023-01-17T18:59:21.487Z,6.91
2023-01-17T19:01:50.179Z,6.88
2023-01-17T19:04:18.932Z,6.84
2023-01-17T19:06:48.237Z,6.81
2023-01-17T19:09:17.316Z,6.77
2023-01-17T19:11:47.459Z,6.76
2023-01-17T19:14:15.901Z,6.76
2023-01-17T19:16:45.004Z,6.74
2023-01-17T19:19:15.393Z,6.71
2023-01-17T19:21:44.040Z,6.69
2023-01-17T19:24:13.307Z,6.67
2023-01-17T19:26:43.122Z,6.66
2023-01-17T19:29:12.330Z,6.69
2023-01-17T19:31:42.766Z,6.71
2023-01-17T19:34:14.246Z,6.74
2023-01-17T19:36:42.578Z,6.76
2023-01-17T19:39:10.865Z,6.75
2023-01-17T19:41:44.758Z,6.75
2023-01-17T19:44:14.591Z,6.78
2023-01-17T19:46:46.041Z,6.76
2023-01-17T19:49:16.522Z,6.73
2023-01-17T19:51:44.765Z,6.71
2023-01-17T19:54:15.236Z,6.64
2023-01-17T19:56:43.509Z,6.58
2023-01-17T19:59:14.089Z,6.56
2023-01-17T20:01:45.114Z,6.53
2023-01-17T20:04:18.162Z,6.47
2023-01-17T20:06:46.913Z,6.40
2023-01-17T20:09:14.935Z,6.35
2023-01-17T20:11:46.850Z,6.29
2023-01-17T20:14:15.360Z,6.29
2023-01-17T20:16:47.535Z,6.30
2023-01-17T20:19:16.467Z,6.29
2023-01-17T20:21:44.536Z,6.28
2023-01-17T20:24:16.857Z,6.28
2023-01-17T20:26:46.032Z,6.31
2023-01-17T20:29:15.952Z,6.33
2023-01-17T20:31:45.634Z,6.31
2023-01-17T20:34:14.612Z,6.34
2023-01-17T20:36:42.788Z,6.33
2023-01-17T20:39:17.082Z,6.33
2023-01-17T20:41:50.029Z,6.34
2023-01-17T20:44:23.009Z,6.33
2023-01-17T20:46:51.288Z,6.35
2023-01-17T20:49:20.049Z,6.35
2023-01-17T20:51:48.346Z,6.36
2023-01-17T20:54:18.636Z,6.39
2023-01-17T20:56:47.836Z,6.42
2023-01-17T20:59:21.803Z,6.45
2023-01-17T21:01:50.518Z,6.50
2023-01-17T21:04:25.848Z,6.54
2023-01-17T21:06:54.785Z,6.58
2023-01-17T21:09:23.671Z,6.65
2023-01-17T21:11:52.045Z,6.67
2023-01-17T21:14:21.805Z,6.70
2023-01-17T21:16:53.006Z,6.74
2023-01-17T21:19:21.286Z,6.78
2023-01-17T21:21:50.236Z,6.82
2023-01-17T21:24:19.613Z,6.85
2023-01-17T21:26:49.686Z,6.88
2023-01-17T21:29:17.825Z,6.88
2023-01-17T21:31:46.081Z,6.90
2023-01-17T21:34:14.305Z,6.92
2023-01-17T21:36:43.209Z,6.91
2023-01-17T21:39:15.841Z,6.91
2023-01-17T21:41:47.981Z,6.89
2023-01-17T21:44:19.776Z,6.85
2023-01-17T21:46:49.357Z,6.85
2023-01-17T21:49:17.695Z,6.80
2023-01-17T21:51:54.836Z,6.74
2023-01-17T21:54:47.066Z,6.72
2023-01-17T21:57:39.486Z,6.71
2023-01-17T22:00:11.018Z,6.69
2023-01-17T22:02:46.980Z,6.68
2023-01-17T22:05:16.865Z,6.64
2023-01-17T22:08:05.420Z,6.63
2023-01-17T22:10:44.517Z,6.64
2023-01-17T22:13:15.392Z,6.65
2023-01-17T22:15:44.609Z,6.65
2023-01-17T22:18:14.523Z,6.68
2023-01-17T22:20:42.982Z,6.72
2023-01-17T22:23:12.051Z,6.74
2023-01-17T22:25:40.233Z,6.75
2023-01-17T22:28:08.383Z,6.80
2023-01-17T22:30:36.407Z,6.82
2023-01-17T22:33:04.576Z,6.84
2023-01-17T22:35:32.968Z,6.86
2023-01-17T22:38:01.590Z,6.89
2023-01-17T22:40:31.649Z,6.93
2023-01-17T22:42:59.890Z,6.94
2023-01-17T22:45:31.207Z,6.96
2023-01-17T22:47:59.195Z,6.97
2023-01-17T22:50:29.629Z,6.98
2023-01-17T22:52:58.098Z,6.99
2023-01-17T22:55:26.358Z,6.93
2023-01-17T22:57:54.617Z,6.91
2023-01-17T23:00:22.950Z,6.91
2023-01-17T23:02:51.126Z,6.84
2023-01-17T23:05:20.251Z,6.79
2023-01-17T23:07:50.250Z,6.75
2023-01-17T23:10:38.387Z,6.70
2023-01-17T23:13:10.352Z,6.67
2023-01-17T23:15:59.673Z,6.66
2023-01-17T23:18:46.706Z,6.66
2023-01-17T23:21:18.031Z,6.65
2023-01-17T23:23:46.475Z,6.62
2023-01-17T23:26:14.593Z,6.63
2023-01-17T23:28:42.820Z,6.64
2023-01-17T23:31:12.539Z,6.67
2023-01-17T23:33:40.863Z,6.69
2023-01-17T23:36:09.426Z,6.71
2023-01-17T23:38:40.660Z,6.73
2023-01-17T23:41:27.749Z,6.74
2023-01-17T23:43:58.702Z,6.78
2023-01-17T23:46:27.288Z,6.81
2023-01-17T23:48:55.441Z,6.84
2023-01-17T23:51:23.521Z,6.89
2023-01-17T23:53:57.347Z,6.91
2023-01-17T23:56:25.770Z,6.91
2023-01-17T23:58:54.185Z,6.88
